sensor_id;sensor_type;location;lat;lon;timestamp;P1;durP1;ratioP1;P2;durP2;ratioP2
12814;SDS011;6472;52.328;13.070;2023-04-25T00:00:25;3.60;;;1.50;;
12814;SDS011;6472;52.328;13.070;2023-04-25T00:02:53;4.47;;;1.53;;
12814;SDS011;6472;52.328;13.070;2023-04-25T00:05:23;1.33;;;1.23;;
12814;SDS011;6472;52.328;13.070;2023-04-25T00:07:51;4.03;;;0.90;;
12814;SDS011;6472;52.328;13.070;2023-04-25T00:10:19;2.10;;;1.77;;
12814;SDS011;6472;52.328;13.070;2023-04-25T00:12:47;1.87;;;1.10;;
12814;SDS011;6472;52.328;13.070;2023-04-25T00:15:15;1.60;;;1.13;;
12814;SDS011;6472;52.328;13.070;2023-04-25T00:17:45;3.97;;;1.43;;
12814;SDS011;6472;52.328;13.070;2023-04-25T00:20:13;1.30;;;1.13;;
12814;SDS011;6472;52.328;13.070;2023-04-25T00:22:41;1.40;;;1.27;;
12814;SDS011;6472;52.328;13.070;2023-04-25T00:25:09;2.03;;;1.10;;
12814;SDS011;6472;52.328;13.070;2023-04-25T00:27:37;3.00;;;1.10;;
12814;SDS011;6472;52.328;13.070;2023-04-25T00:30:08;1.87;;;1.20;;
12814;SDS011;6472;52.328;13.070;2023-04-25T00:32:36;3.47;;;1.27;;
12814;SDS011;6472;52.328;13.070;2023-04-25T00:35:06;1.10;;;0.97;;
12814;SDS011;6472;52.328;13.070;2023-04-25T00:37:35;3.23;;;1.60;;
12814;SDS011;6472;52.328;13.070;2023-04-25T00:40:04;1.37;;;1.17;;
12814;SDS011;6472;52.328;13.070;2023-04-25T00:42:34;1.10;;;1.10;;
12814;SDS011;6472;52.328;13.070;2023-04-25T00:45:04;2.87;;;1.30;;
12814;SDS011;6472;52.328;13.070;2023-04-25T00:47:34;1.60;;;1.50;;
12814;SDS011;6472;52.328;13.070;2023-04-25T00:50:04;1.17;;;1.10;;
12814;SDS011;6472;52.328;13.070;2023-04-25T00:52:34;0.93;;;0.90;;
12814;SDS011;6472;52.328;13.070;2023-04-25T00:55:03;2.03;;;1.43;;
12814;SDS011;6472;52.328;13.070;2023-04-25T00:57:32;1.10;;;1.10;;
12814;SDS011;6472;52.328;13.070;2023-04-25T01:00:01;2.83;;;1.00;;
12814;SDS011;6472;52.328;13.070;2023-04-25T01:02:31;3.00;;;1.00;;
12814;SDS011;6472;52.328;13.070;2023-04-25T01:05:00;1.43;;;1.33;;
12814;SDS011;6472;52.328;13.070;2023-04-25T01:07:30;3.50;;;1.40;;
12814;SDS011;6472;52.328;13.070;2023-04-25T01:09:58;2.60;;;1.43;;
12814;SDS011;6472;52.328;13.070;2023-04-25T01:12:26;1.80;;;1.17;;
12814;SDS011;6472;52.328;13.070;2023-04-25T01:14:54;2.43;;;1.47;;
12814;SDS011;6472;52.328;13.070;2023-04-25T01:17:22;2.47;;;1.90;;
12814;SDS011;6472;52.328;13.070;2023-04-25T01:19:51;1.57;;;1.33;;
12814;SDS011;6472;52.328;13.070;2023-04-25T01:22:20;1.23;;;1.13;;
12814;SDS011;6472;52.328;13.070;2023-04-25T01:24:48;5.20;;;1.43;;
12814;SDS011;6472;52.328;13.070;2023-04-25T01:27:16;1.30;;;1.20;;
12814;SDS011;6472;52.328;13.070;2023-04-25T01:29:45;3.77;;;1.70;;
12814;SDS011;6472;52.328;13.070;2023-04-25T01:32:13;2.83;;;1.73;;
12814;SDS011;6472;52.328;13.070;2023-04-25T01:34:41;4.70;;;1.67;;
12814;SDS011;6472;52.328;13.070;2023-04-25T01:37:09;7.43;;;1.77;;
12814;SDS011;6472;52.328;13.070;2023-04-25T01:39:39;1.30;;;1.20;;
12814;SDS011;6472;52.328;13.070;2023-04-25T01:42:07;3.57;;;1.87;;
12814;SDS011;6472;52.328;13.070;2023-04-25T01:44:35;1.73;;;1.40;;
12814;SDS011;6472;52.328;13.070;2023-04-25T01:47:03;2.00;;;1.40;;
12814;SDS011;6472;52.328;13.070;2023-04-25T01:49:31;2.80;;;1.20;;
12814;SDS011;6472;52.328;13.070;2023-04-25T01:51:59;2.20;;;1.30;;
12814;SDS011;6472;52.328;13.070;2023-04-25T01:54:27;3.60;;;1.23;;
12814;SDS011;6472;52.328;13.070;2023-04-25T01:56:58;3.57;;;1.47;;
12814;SDS011;6472;52.328;13.070;2023-04-25T01:59:26;1.40;;;1.10;;
12814;SDS011;6472;52.328;13.070;2023-04-25T02:01:54;1.50;;;1.40;;
12814;SDS011;6472;52.328;13.070;2023-04-25T02:04:22;2.17;;;1.47;;
12814;SDS011;6472;52.328;13.070;2023-04-25T02:06:50;1.77;;;1.50;;
12814;SDS011;6472;52.328;13.070;2023-04-25T02:09:18;1.97;;;1.47;;
12814;SDS011;6472;52.328;13.070;2023-04-25T02:11:46;3.70;;;2.03;;
12814;SDS011;6472;52.328;13.070;2023-04-25T02:14:16;3.33;;;2.00;;
12814;SDS011;6472;52.328;13.070;2023-04-25T02:16:44;1.50;;;1.40;;
12814;SDS011;6472;52.328;13.070;2023-04-25T02:19:12;4.43;;;1.57;;
12814;SDS011;6472;52.328;13.070;2023-04-25T02:21:41;3.97;;;2.20;;
12814;SDS011;6472;52.328;13.070;2023-04-25T02:24:09;1.90;;;1.77;;
12814;SDS011;6472;52.328;13.070;2023-04-25T02:26:37;2.17;;;1.93;;
12814;SDS011;6472;52.328;13.070;2023-04-25T02:29:05;2.70;;;1.30;;
12814;SDS011;6472;52.328;13.070;2023-04-25T02:31:35;3.03;;;2.10;;
12814;SDS011;6472;52.328;13.070;2023-04-25T02:34:03;2.27;;;1.70;;
12814;SDS011;6472;52.328;13.070;2023-04-25T02:36:31;2.13;;;1.80;;
12814;SDS011;6472;52.328;13.070;2023-04-25T02:39:00;2.93;;;2.07;;
12814;SDS011;6472;52.328;13.070;2023-04-25T02:41:29;10.03;;;2.00;;
12814;SDS011;6472;52.328;13.070;2023-04-25T02:43:57;4.50;;;1.83;;
12814;SDS011;6472;52.328;13.070;2023-04-25T02:46:25;4.00;;;2.00;;
12814;SDS011;6472;52.328;13.070;2023-04-25T02:49:05;3.90;;;1.60;;
12814;SDS011;6472;52.328;13.070;2023-04-25T02:51:34;3.73;;;2.60;;
12814;SDS011;6472;52.328;13.070;2023-04-25T02:54:02;2.97;;;1.80;;
12814;SDS011;6472;52.328;13.070;2023-04-25T02:56:30;2.13;;;1.90;;
12814;SDS011;6472;52.328;13.070;2023-04-25T02:58:58;6.33;;;2.37;;
12814;SDS011;6472;52.328;13.070;2023-04-25T03:01:26;4.00;;;2.00;;
12814;SDS011;6472;52.328;13.070;2023-04-25T03:03:54;2.33;;;1.97;;
12814;SDS011;6472;52.328;13.070;2023-04-25T03:06:24;4.40;;;2.13;;
12814;SDS011;6472;52.328;13.070;2023-04-25T03:08:52;7.07;;;2.33;;
12814;SDS011;6472;52.328;13.070;2023-04-25T03:11:20;5.70;;;1.80;;
12814;SDS011;6472;52.328;13.070;2023-04-25T03:13:48;1.57;;;1.47;;
12814;SDS011;6472;52.328;13.070;2023-04-25T03:16:16;3.80;;;1.90;;
12814;SDS011;6472;52.328;13.070;2023-04-25T03:18:44;1.63;;;1.50;;
12814;SDS011;6472;52.328;13.070;2023-04-25T03:21:12;3.70;;;2.53;;
12814;SDS011;6472;52.328;13.070;2023-04-25T03:23:42;2.97;;;1.90;;
12814;SDS011;6472;52.328;13.070;2023-04-25T03:26:10;3.40;;;2.07;;
12814;SDS011;6472;52.328;13.070;2023-04-25T03:28:38;1.93;;;1.73;;
12814;SDS011;6472;52.328;13.070;2023-04-25T03:31:06;4.70;;;2.33;;
12814;SDS011;6472;52.328;13.070;2023-04-25T03:33:34;4.57;;;1.80;;
12814;SDS011;6472;52.328;13.070;2023-04-25T03:36:02;3.70;;;1.73;;
12814;SDS011;6472;52.328;13.070;2023-04-25T03:38:30;4.33;;;3.07;;
12814;SDS011;6472;52.328;13.070;2023-04-25T03:41:00;4.30;;;1.60;;
12814;SDS011;6472;52.328;13.070;2023-04-25T03:43:28;4.47;;;2.07;;
12814;SDS011;6472;52.328;13.070;2023-04-25T03:45:56;3.77;;;2.07;;
12814;SDS011;6472;52.328;13.070;2023-04-25T03:48:24;3.70;;;1.63;;
12814;SDS011;6472;52.328;13.070;2023-04-25T03:50:53;2.73;;;1.70;;
12814;SDS011;6472;52.328;13.070;2023-04-25T03:53:21;4.37;;;2.50;;
12814;SDS011;6472;52.328;13.070;2023-04-25T03:55:49;6.80;;;1.83;;
12814;SDS011;6472;52.328;13.070;2023-04-25T03:58:18;1.63;;;1.43;;
12814;SDS011;6472;52.328;13.070;2023-04-25T04:00:46;3.67;;;2.20;;
12814;SDS011;6472;52.328;13.070;2023-04-25T04:03:14;2.20;;;2.00;;
12814;SDS011;6472;52.328;13.070;2023-04-25T04:05:42;3.00;;;2.27;;
12814;SDS011;6472;52.328;13.070;2023-04-25T04:08:11;3.77;;;2.00;;
12814;SDS011;6472;52.328;13.070;2023-04-25T04:10:39;3.50;;;2.30;;
12814;SDS011;6472;52.328;13.070;2023-04-25T04:13:07;4.33;;;2.20;;
12814;SDS011;6472;52.328;13.070;2023-04-25T04:15:36;2.30;;;1.77;;
12814;SDS011;6472;52.328;13.070;2023-04-25T04:18:04;4.60;;;2.53;;
12814;SDS011;6472;52.328;13.070;2023-04-25T04:20:32;4.37;;;2.17;;
12814;SDS011;6472;52.328;13.070;2023-04-25T04:23:01;2.37;;;2.17;;
12814;SDS011;6472;52.328;13.070;2023-04-25T04:25:29;2.37;;;1.77;;
12814;SDS011;6472;52.328;13.070;2023-04-25T04:27:57;5.37;;;2.57;;
12814;SDS011;6472;52.328;13.070;2023-04-25T04:30:25;4.70;;;1.93;;
12814;SDS011;6472;52.328;13.070;2023-04-25T04:32:57;3.53;;;1.97;;
12814;SDS011;6472;52.328;13.070;2023-04-25T04:35:25;1.80;;;1.70;;
12814;SDS011;6472;52.328;13.070;2023-04-25T04:37:53;3.13;;;2.23;;
12814;SDS011;6472;52.328;13.070;2023-04-25T04:40:21;5.83;;;2.20;;
12814;SDS011;6472;52.328;13.070;2023-04-25T04:42:49;1.83;;;1.70;;
12814;SDS011;6472;52.328;13.070;2023-04-25T04:45:17;3.93;;;2.10;;
12814;SDS011;6472;52.328;13.070;2023-04-25T04:47:46;6.67;;;1.83;;
12814;SDS011;6472;52.328;13.070;2023-04-25T04:50:16;3.33;;;2.13;;
12814;SDS011;6472;52.328;13.070;2023-04-25T04:52:44;4.87;;;2.43;;
12814;SDS011;6472;52.328;13.070;2023-04-25T04:55:12;4.90;;;2.10;;
12814;SDS011;6472;52.328;13.070;2023-04-25T04:57:40;4.40;;;2.40;;
12814;SDS011;6472;52.328;13.070;2023-04-25T05:00:09;5.77;;;3.03;;
12814;SDS011;6472;52.328;13.070;2023-04-25T05:02:38;3.77;;;2.43;;
12814;SDS011;6472;52.328;13.070;2023-04-25T05:05:06;2.10;;;1.90;;
12814;SDS011;6472;52.328;13.070;2023-04-25T05:07:36;3.50;;;2.63;;
12814;SDS011;6472;52.328;13.070;2023-04-25T05:10:05;4.33;;;2.73;;
12814;SDS011;6472;52.328;13.070;2023-04-25T05:12:33;4.23;;;2.00;;
12814;SDS011;6472;52.328;13.070;2023-04-25T05:15:02;5.40;;;2.17;;
12814;SDS011;6472;52.328;13.070;2023-04-25T05:17:31;4.47;;;2.53;;
12814;SDS011;6472;52.328;13.070;2023-04-25T05:19:59;3.80;;;2.20;;
12814;SDS011;6472;52.328;13.070;2023-04-25T05:22:27;5.00;;;2.30;;
12814;SDS011;6472;52.328;13.070;2023-04-25T05:24:57;4.87;;;2.80;;
12814;SDS011;6472;52.328;13.070;2023-04-25T05:27:25;5.50;;;2.37;;
12814;SDS011;6472;52.328;13.070;2023-04-25T05:29:53;3.20;;;2.70;;
12814;SDS011;6472;52.328;13.070;2023-04-25T05:32:21;17.53;;;3.07;;
12814;SDS011;6472;52.328;13.070;2023-04-25T05:34:49;3.07;;;1.70;;
12814;SDS011;6472;52.328;13.070;2023-04-25T05:37:18;3.87;;;1.90;;
12814;SDS011;6472;52.328;13.070;2023-04-25T05:39:46;6.93;;;2.40;;
12814;SDS011;6472;52.328;13.070;2023-04-25T05:42:15;3.33;;;2.20;;
12814;SDS011;6472;52.328;13.070;2023-04-25T05:44:44;2.73;;;2.30;;
12814;SDS011;6472;52.328;13.070;2023-04-25T05:47:12;5.03;;;2.50;;
12814;SDS011;6472;52.328;13.070;2023-04-25T05:49:39;5.00;;;2.67;;
12814;SDS011;6472;52.328;13.070;2023-04-25T05:52:08;4.90;;;2.13;;
12814;SDS011;6472;52.328;13.070;2023-04-25T05:54:35;6.83;;;2.80;;
12814;SDS011;6472;52.328;13.070;2023-04-25T05:57:03;4.30;;;2.27;;
12814;SDS011;6472;52.328;13.070;2023-04-25T05:59:33;5.03;;;2.43;;
12814;SDS011;6472;52.328;13.070;2023-04-25T06:02:01;4.37;;;2.73;;
12814;SDS011;6472;52.328;13.070;2023-04-25T06:04:29;3.10;;;1.83;;
12814;SDS011;6472;52.328;13.070;2023-04-25T06:06:57;3.73;;;2.30;;
12814;SDS011;6472;52.328;13.070;2023-04-25T06:09:25;2.37;;;2.00;;
12814;SDS011;6472;52.328;13.070;2023-04-25T06:11:53;3.47;;;2.17;;
12814;SDS011;6472;52.328;13.070;2023-04-25T06:14:21;4.00;;;1.93;;
12814;SDS011;6472;52.328;13.070;2023-04-25T06:16:56;5.07;;;2.60;;
12814;SDS011;6472;52.328;13.070;2023-04-25T06:19:24;7.90;;;2.87;;
12814;SDS011;6472;52.328;13.070;2023-04-25T06:21:52;5.93;;;2.10;;
12814;SDS011;6472;52.328;13.070;2023-04-25T06:24:20;6.30;;;2.53;;
12814;SDS011;6472;52.328;13.070;2023-04-25T06:26:48;3.87;;;2.63;;
12814;SDS011;6472;52.328;13.070;2023-04-25T06:29:16;5.80;;;3.00;;
12814;SDS011;6472;52.328;13.070;2023-04-25T06:31:44;3.33;;;2.50;;
12814;SDS011;6472;52.328;13.070;2023-04-25T06:34:13;5.87;;;2.20;;
12814;SDS011;6472;52.328;13.070;2023-04-25T06:36:41;3.90;;;2.03;;
12814;SDS011;6472;52.328;13.070;2023-04-25T06:39:10;3.10;;;1.87;;
12814;SDS011;6472;52.328;13.070;2023-04-25T06:41:38;4.70;;;2.47;;
12814;SDS011;6472;52.328;13.070;2023-04-25T06:44:07;3.40;;;2.13;;
12814;SDS011;6472;52.328;13.070;2023-04-25T06:46:34;4.93;;;2.50;;
12814;SDS011;6472;52.328;13.070;2023-04-25T06:49:04;2.93;;;1.87;;
12814;SDS011;6472;52.328;13.070;2023-04-25T06:51:33;2.00;;;1.60;;
12814;SDS011;6472;52.328;13.070;2023-04-25T06:54:01;3.33;;;1.97;;
12814;SDS011;6472;52.328;13.070;2023-04-25T06:56:30;6.47;;;1.87;;
12814;SDS011;6472;52.328;13.070;2023-04-25T06:58:58;6.83;;;1.40;;
12814;SDS011;6472;52.328;13.070;2023-04-25T07:01:27;4.30;;;1.97;;
12814;SDS011;6472;52.328;13.070;2023-04-25T07:03:55;3.43;;;2.57;;
12814;SDS011;6472;52.328;13.070;2023-04-25T07:06:23;1.80;;;1.70;;
12814;SDS011;6472;52.328;13.070;2023-04-25T07:08:54;3.40;;;1.73;;
12814;SDS011;6472;52.328;13.070;2023-04-25T07:11:22;1.27;;;1.00;;
12814;SDS011;6472;52.328;13.070;2023-04-25T07:13:53;1.90;;;1.67;;
12814;SDS011;6472;52.328;13.070;2023-04-25T07:16:21;7.60;;;2.33;;
12814;SDS011;6472;52.328;13.070;2023-04-25T07:18:49;1.70;;;1.60;;
12814;SDS011;6472;52.328;13.070;2023-04-25T07:21:17;4.37;;;1.97;;
12814;SDS011;6472;52.328;13.070;2023-04-25T07:23:45;3.93;;;1.83;;
12814;SDS011;6472;52.328;13.070;2023-04-25T07:26:15;3.17;;;1.60;;
12814;SDS011;6472;52.328;13.070;2023-04-25T07:28:43;10.60;;;2.27;;
12814;SDS011;6472;52.328;13.070;2023-04-25T07:31:12;5.53;;;2.27;;
12814;SDS011;6472;52.328;13.070;2023-04-25T07:33:39;6.13;;;2.30;;
12814;SDS011;6472;52.328;13.070;2023-04-25T07:36:08;3.57;;;2.17;;
12814;SDS011;6472;52.328;13.070;2023-04-25T07:38:36;4.40;;;2.20;;
12814;SDS011;6472;52.328;13.070;2023-04-25T07:41:04;2.40;;;1.60;;
12814;SDS011;6472;52.328;13.070;2023-04-25T07:43:33;1.70;;;1.60;;
12814;SDS011;6472;52.328;13.070;2023-04-25T07:46:01;4.33;;;1.77;;
12814;SDS011;6472;52.328;13.070;2023-04-25T07:48:29;6.20;;;2.40;;
12814;SDS011;6472;52.328;13.070;2023-04-25T07:50:57;4.53;;;2.40;;
12814;SDS011;6472;52.328;13.070;2023-04-25T07:53:25;10.63;;;2.50;;
12814;SDS011;6472;52.328;13.070;2023-04-25T07:55:53;5.13;;;2.10;;
12814;SDS011;6472;52.328;13.070;2023-04-25T07:58:21;4.20;;;1.80;;
12814;SDS011;6472;52.328;13.070;2023-04-25T08:00:51;3.50;;;1.83;;
12814;SDS011;6472;52.328;13.070;2023-04-25T08:03:18;5.67;;;2.37;;
12814;SDS011;6472;52.328;13.070;2023-04-25T08:05:48;5.23;;;1.73;;
12814;SDS011;6472;52.328;13.070;2023-04-25T08:08:16;5.30;;;2.17;;
12814;SDS011;6472;52.328;13.070;2023-04-25T08:10:44;9.00;;;2.40;;
12814;SDS011;6472;52.328;13.070;2023-04-25T08:13:12;8.63;;;2.60;;
12814;SDS011;6472;52.328;13.070;2023-04-25T08:15:40;7.63;;;1.67;;
12814;SDS011;6472;52.328;13.070;2023-04-25T08:18:09;6.43;;;1.90;;
12814;SDS011;6472;52.328;13.070;2023-04-25T08:20:37;6.33;;;2.10;;
12814;SDS011;6472;52.328;13.070;2023-04-25T08:23:06;4.10;;;1.83;;
12814;SDS011;6472;52.328;13.070;2023-04-25T08:25:37;12.07;;;2.10;;
12814;SDS011;6472;52.328;13.070;2023-04-25T08:28:05;5.10;;;2.07;;
12814;SDS011;6472;52.328;13.070;2023-04-25T08:30:33;8.63;;;1.90;;
12814;SDS011;6472;52.328;13.070;2023-04-25T08:33:01;3.73;;;1.87;;
12814;SDS011;6472;52.328;13.070;2023-04-25T08:35:30;7.73;;;2.53;;
12814;SDS011;6472;52.328;13.070;2023-04-25T08:37:59;6.03;;;1.60;;
12814;SDS011;6472;52.328;13.070;2023-04-25T08:40:27;4.23;;;2.27;;
12814;SDS011;6472;52.328;13.070;2023-04-25T08:42:56;3.43;;;1.33;;
12814;SDS011;6472;52.328;13.070;2023-04-25T08:45:26;6.53;;;2.03;;
12814;SDS011;6472;52.328;13.070;2023-04-25T08:47:55;8.17;;;2.37;;
12814;SDS011;6472;52.328;13.070;2023-04-25T08:50:24;4.10;;;1.33;;
12814;SDS011;6472;52.328;13.070;2023-04-25T08:52:54;6.93;;;2.23;;
12814;SDS011;6472;52.328;13.070;2023-04-25T08:55:28;4.40;;;1.97;;
12814;SDS011;6472;52.328;13.070;2023-04-25T08:57:56;1.87;;;1.30;;
12814;SDS011;6472;52.328;13.070;2023-04-25T09:00:27;5.53;;;2.07;;
12814;SDS011;6472;52.328;13.070;2023-04-25T09:02:55;4.73;;;1.90;;
12814;SDS011;6472;52.328;13.070;2023-04-25T09:05:25;2.97;;;1.40;;
12814;SDS011;6472;52.328;13.070;2023-04-25T09:07:56;7.83;;;1.70;;
12814;SDS011;6472;52.328;13.070;2023-04-25T09:10:24;4.97;;;1.40;;
12814;SDS011;6472;52.328;13.070;2023-04-25T09:13:03;10.30;;;2.00;;
12814;SDS011;6472;52.328;13.070;2023-04-25T09:15:32;2.33;;;1.30;;
12814;SDS011;6472;52.328;13.070;2023-04-25T09:18:00;5.07;;;1.70;;
12814;SDS011;6472;52.328;13.070;2023-04-25T09:20:31;3.47;;;1.67;;
12814;SDS011;6472;52.328;13.070;2023-04-25T09:23:08;3.70;;;1.73;;
12814;SDS011;6472;52.328;13.070;2023-04-25T09:25:40;6.10;;;1.60;;
12814;SDS011;6472;52.328;13.070;2023-04-25T09:28:28;6.87;;;1.60;;
12814;SDS011;6472;52.328;13.070;2023-04-25T09:31:10;3.93;;;1.40;;
12814;SDS011;6472;52.328;13.070;2023-04-25T09:33:40;5.70;;;2.00;;
12814;SDS011;6472;52.328;13.070;2023-04-25T09:36:11;2.93;;;1.47;;
12814;SDS011;6472;52.328;13.070;2023-04-25T09:38:52;2.93;;;1.50;;
12814;SDS011;6472;52.328;13.070;2023-04-25T09:41:22;5.60;;;1.50;;
12814;SDS011;6472;52.328;13.070;2023-04-25T09:43:51;8.23;;;1.43;;
12814;SDS011;6472;52.328;13.070;2023-04-25T09:46:19;4.63;;;1.40;;
12814;SDS011;6472;52.328;13.070;2023-04-25T09:48:47;4.23;;;1.30;;
12814;SDS011;6472;52.328;13.070;2023-04-25T09:51:17;8.50;;;1.33;;
12814;SDS011;6472;52.328;13.070;2023-04-25T09:53:45;11.60;;;1.70;;
12814;SDS011;6472;52.328;13.070;2023-04-25T09:56:17;5.53;;;1.40;;
12814;SDS011;6472;52.328;13.070;2023-04-25T09:58:48;5.13;;;1.83;;
12814;SDS011;6472;52.328;13.070;2023-04-25T10:01:21;3.20;;;1.17;;
12814;SDS011;6472;52.328;13.070;2023-04-25T10:03:50;1.77;;;1.13;;
12814;SDS011;6472;52.328;13.070;2023-04-25T10:06:20;4.73;;;1.37;;
12814;SDS011;6472;52.328;13.070;2023-04-25T10:08:52;1.20;;;1.00;;
12814;SDS011;6472;52.328;13.070;2023-04-25T10:11:23;2.33;;;1.33;;
12814;SDS011;6472;52.328;13.070;2023-04-25T10:13:53;3.27;;;1.47;;
12814;SDS011;6472;52.328;13.070;2023-04-25T10:16:21;5.53;;;1.47;;
12814;SDS011;6472;52.328;13.070;2023-04-25T10:18:50;4.43;;;1.90;;
12814;SDS011;6472;52.328;13.070;2023-04-25T10:21:18;2.17;;;1.10;;
12814;SDS011;6472;52.328;13.070;2023-04-25T10:23:49;5.00;;;1.10;;
12814;SDS011;6472;52.328;13.070;2023-04-25T10:26:17;9.57;;;1.47;;
12814;SDS011;6472;52.328;13.070;2023-04-25T10:28:57;1.63;;;0.87;;
12814;SDS011;6472;52.328;13.070;2023-04-25T10:31:25;3.80;;;1.37;;
12814;SDS011;6472;52.328;13.070;2023-04-25T10:33:54;3.90;;;1.10;;
12814;SDS011;6472;52.328;13.070;2023-04-25T10:36:23;1.60;;;1.13;;
12814;SDS011;6472;52.328;13.070;2023-04-25T10:38:53;3.03;;;1.13;;
12814;SDS011;6472;52.328;13.070;2023-04-25T10:41:21;7.33;;;1.10;;
12814;SDS011;6472;52.328;13.070;2023-04-25T10:43:50;4.97;;;1.80;;
12814;SDS011;6472;52.328;13.070;2023-04-25T10:46:28;3.73;;;1.07;;
12814;SDS011;6472;52.328;13.070;2023-04-25T10:48:58;1.93;;;0.93;;
12814;SDS011;6472;52.328;13.070;2023-04-25T10:51:28;4.67;;;1.13;;
12814;SDS011;6472;52.328;13.070;2023-04-25T10:54:18;1.47;;;1.10;;
12814;SDS011;6472;52.328;13.070;2023-04-25T10:56:48;7.20;;;1.30;;
12814;SDS011;6472;52.328;13.070;2023-04-25T10:59:18;1.43;;;1.30;;
12814;SDS011;6472;52.328;13.070;2023-04-25T11:01:48;3.23;;;1.20;;
12814;SDS011;6472;52.328;13.070;2023-04-25T11:04:19;2.10;;;1.10;;
12814;SDS011;6472;52.328;13.070;2023-04-25T11:07:00;1.77;;;1.00;;
12814;SDS011;6472;52.328;13.070;2023-04-25T11:09:35;3.93;;;1.20;;
12814;SDS011;6472;52.328;13.070;2023-04-25T11:12:04;3.63;;;1.50;;
12814;SDS011;6472;52.328;13.070;2023-04-25T11:14:36;3.07;;;1.40;;
12814;SDS011;6472;52.328;13.070;2023-04-25T11:17:06;3.37;;;1.13;;
12814;SDS011;6472;52.328;13.070;2023-04-25T11:19:35;2.87;;;1.10;;
12814;SDS011;6472;52.328;13.070;2023-04-25T11:22:03;7.73;;;1.47;;
12814;SDS011;6472;52.328;13.070;2023-04-25T11:24:33;4.60;;;1.10;;
12814;SDS011;6472;52.328;13.070;2023-04-25T11:27:02;2.47;;;0.93;;
12814;SDS011;6472;52.328;13.070;2023-04-25T11:29:32;1.30;;;1.00;;
12814;SDS011;6472;52.328;13.070;2023-04-25T11:32:02;6.27;;;1.27;;
12814;SDS011;6472;52.328;13.070;2023-04-25T11:34:32;4.17;;;1.10;;
12814;SDS011;6472;52.328;13.070;2023-04-25T11:37:00;2.30;;;1.37;;
12814;SDS011;6472;52.328;13.070;2023-04-25T11:39:29;2.30;;;1.00;;
12814;SDS011;6472;52.328;13.070;2023-04-25T11:41:57;4.53;;;1.17;;
12814;SDS011;6472;52.328;13.070;2023-04-25T11:44:27;1.23;;;1.13;;
12814;SDS011;6472;52.328;13.070;2023-04-25T11:46:55;3.30;;;1.00;;
12814;SDS011;6472;52.328;13.070;2023-04-25T11:49:26;1.20;;;0.90;;
12814;SDS011;6472;52.328;13.070;2023-04-25T11:51:57;3.53;;;1.20;;
12814;SDS011;6472;52.328;13.070;2023-04-25T11:54:26;3.10;;;0.83;;
12814;SDS011;6472;52.328;13.070;2023-04-25T11:56:54;2.03;;;0.73;;
12814;SDS011;6472;52.328;13.070;2023-04-25T11:59:23;5.60;;;1.10;;
12814;SDS011;6472;52.328;13.070;2023-04-25T12:01:52;1.90;;;1.07;;
12814;SDS011;6472;52.328;13.070;2023-04-25T12:04:21;6.43;;;1.23;;
12814;SDS011;6472;52.328;13.070;2023-04-25T12:06:52;0.90;;;0.90;;
12814;SDS011;6472;52.328;13.070;2023-04-25T12:09:27;5.97;;;1.30;;
12814;SDS011;6472;52.328;13.070;2023-04-25T12:11:56;2.50;;;0.93;;
12814;SDS011;6472;52.328;13.070;2023-04-25T12:14:26;1.27;;;1.07;;
12814;SDS011;6472;52.328;13.070;2023-04-25T12:17:16;2.40;;;0.90;;
12814;SDS011;6472;52.328;13.070;2023-04-25T12:19:46;4.60;;;0.93;;
12814;SDS011;6472;52.328;13.070;2023-04-25T12:22:23;2.03;;;1.10;;
12814;SDS011;6472;52.328;13.070;2023-04-25T12:24:52;1.43;;;1.13;;
12814;SDS011;6472;52.328;13.070;2023-04-25T12:27:20;4.00;;;1.33;;
12814;SDS011;6472;52.328;13.070;2023-04-25T12:29:51;2.43;;;1.37;;
12814;SDS011;6472;52.328;13.070;2023-04-25T12:32:21;2.30;;;0.97;;
12814;SDS011;6472;52.328;13.070;2023-04-25T12:34:50;9.83;;;1.47;;
12814;SDS011;6472;52.328;13.070;2023-04-25T12:37:18;1.50;;;0.87;;
12814;SDS011;6472;52.328;13.070;2023-04-25T12:39:48;1.70;;;1.00;;
12814;SDS011;6472;52.328;13.070;2023-04-25T12:42:16;2.37;;;1.00;;
12814;SDS011;6472;52.328;13.070;2023-04-25T12:44:45;1.10;;;1.10;;
12814;SDS011;6472;52.328;13.070;2023-04-25T12:47:14;2.40;;;1.00;;
12814;SDS011;6472;52.328;13.070;2023-04-25T12:49:48;1.00;;;0.77;;
12814;SDS011;6472;52.328;13.070;2023-04-25T12:52:16;1.70;;;1.30;;
12814;SDS011;6472;52.328;13.070;2023-04-25T12:54:44;4.37;;;1.20;;
12814;SDS011;6472;52.328;13.070;2023-04-25T12:57:14;1.47;;;1.10;;
12814;SDS011;6472;52.328;13.070;2023-04-25T12:59:43;13.90;;;1.37;;
12814;SDS011;6472;52.328;13.070;2023-04-25T13:02:11;1.20;;;1.10;;
12814;SDS011;6472;52.328;13.070;2023-04-25T13:04:39;5.30;;;1.27;;
12814;SDS011;6472;52.328;13.070;2023-04-25T13:07:08;3.73;;;1.80;;
12814;SDS011;6472;52.328;13.070;2023-04-25T13:09:36;2.13;;;1.33;;
12814;SDS011;6472;52.328;13.070;2023-04-25T13:12:05;4.03;;;1.20;;
12814;SDS011;6472;52.328;13.070;2023-04-25T13:14:35;1.43;;;0.97;;
12814;SDS011;6472;52.328;13.070;2023-04-25T13:17:03;1.93;;;1.60;;
12814;SDS011;6472;52.328;13.070;2023-04-25T13:19:31;6.13;;;1.37;;
12814;SDS011;6472;52.328;13.070;2023-04-25T13:22:00;6.70;;;1.37;;
12814;SDS011;6472;52.328;13.070;2023-04-25T13:24:30;2.13;;;1.27;;
12814;SDS011;6472;52.328;13.070;2023-04-25T13:26:59;2.97;;;1.47;;
12814;SDS011;6472;52.328;13.070;2023-04-25T13:29:27;4.70;;;1.40;;
12814;SDS011;6472;52.328;13.070;2023-04-25T13:31:57;3.50;;;1.10;;
12814;SDS011;6472;52.328;13.070;2023-04-25T13:34:25;0.83;;;0.80;;
12814;SDS011;6472;52.328;13.070;2023-04-25T13:36:53;2.57;;;1.33;;
12814;SDS011;6472;52.328;13.070;2023-04-25T13:39:22;3.37;;;1.50;;
12814;SDS011;6472;52.328;13.070;2023-04-25T13:41:50;3.73;;;1.03;;
12814;SDS011;6472;52.328;13.070;2023-04-25T13:44:17;1.57;;;0.97;;
12814;SDS011;6472;52.328;13.070;2023-04-25T13:46:46;3.70;;;1.00;;
12814;SDS011;6472;52.328;13.070;2023-04-25T13:49:15;1.87;;;1.10;;
12814;SDS011;6472;52.328;13.070;2023-04-25T13:51:44;3.87;;;1.40;;
12814;SDS011;6472;52.328;13.070;2023-04-25T13:54:12;2.63;;;1.07;;
12814;SDS011;6472;52.328;13.070;2023-04-25T13:56:40;3.13;;;1.00;;
12814;SDS011;6472;52.328;13.070;2023-04-25T13:59:08;3.80;;;1.00;;
12814;SDS011;6472;52.328;13.070;2023-04-25T14:01:37;10.73;;;1.43;;
12814;SDS011;6472;52.328;13.070;2023-04-25T14:04:05;1.30;;;1.20;;
12814;SDS011;6472;52.328;13.070;2023-04-25T14:06:34;2.53;;;1.10;;
12814;SDS011;6472;52.328;13.070;2023-04-25T14:09:03;0.73;;;0.73;;
12814;SDS011;6472;52.328;13.070;2023-04-25T14:11:33;1.70;;;1.03;;
12814;SDS011;6472;52.328;13.070;2023-04-25T14:14:01;3.93;;;1.30;;
12814;SDS011;6472;52.328;13.070;2023-04-25T14:16:29;2.90;;;1.40;;
12814;SDS011;6472;52.328;13.070;2023-04-25T14:18:57;1.33;;;1.23;;
12814;SDS011;6472;52.328;13.070;2023-04-25T14:21:26;4.20;;;1.10;;
12814;SDS011;6472;52.328;13.070;2023-04-25T14:23:56;1.03;;;0.93;;
12814;SDS011;6472;52.328;13.070;2023-04-25T14:26:24;2.87;;;1.83;;
12814;SDS011;6472;52.328;13.070;2023-04-25T14:28:52;1.73;;;1.27;;
12814;SDS011;6472;52.328;13.070;2023-04-25T14:31:20;4.83;;;1.60;;
12814;SDS011;6472;52.328;13.070;2023-04-25T14:33:48;3.37;;;1.93;;
12814;SDS011;6472;52.328;13.070;2023-04-25T14:36:17;2.93;;;0.90;;
12814;SDS011;6472;52.328;13.070;2023-04-25T14:38:45;2.57;;;1.17;;
12814;SDS011;6472;52.328;13.070;2023-04-25T14:41:14;3.67;;;2.17;;
12814;SDS011;6472;52.328;13.070;2023-04-25T14:43:42;15.90;;;1.40;;
12814;SDS011;6472;52.328;13.070;2023-04-25T14:46:11;8.13;;;1.40;;
12814;SDS011;6472;52.328;13.070;2023-04-25T14:48:39;2.50;;;1.27;;
12814;SDS011;6472;52.328;13.070;2023-04-25T14:51:08;3.77;;;1.10;;
12814;SDS011;6472;52.328;13.070;2023-04-25T14:53:35;5.93;;;1.23;;
12814;SDS011;6472;52.328;13.070;2023-04-25T14:56:04;4.97;;;1.40;;
12814;SDS011;6472;52.328;13.070;2023-04-25T14:58:34;16.63;;;1.73;;